sensor_id;sensor_type;location;lat;lon;timestamp;temperature;humidity
11748;DHT22;5931;48.832;9.072;2023-07-31T00:01:31;15.40;99.90
11748;DHT22;5931;48.832;9.072;2023-07-31T00:03:57;15.40;99.90
11748;DHT22;5931;48.832;9.072;2023-07-31T00:06:22;15.30;99.90
11748;DHT22;5931;48.832;9.072;2023-07-31T00:08:48;15.30;99.90
11748;DHT22;5931;48.832;9.072;2023-07-31T00:11:14;15.20;99.90
11748;DHT22;5931;48.832;9.072;2023-07-31T00:13:39;15.10;99.90
11748;DHT22;5931;48.832;9.072;2023-07-31T00:16:05;15.00;99.90
11748;DHT22;5931;48.832;9.072;2023-07-31T00:18:31;15.00;99.90
11748;DHT22;5931;48.832;9.072;2023-07-31T00:20:56;15.10;99.90
11748;DHT22;5931;48.832;9.072;2023-07-31T00:23:22;15.00;99.90
11748;DHT22;5931;48.832;9.072;2023-07-31T00:25:48;14.90;99.90
11748;DHT22;5931;48.832;9.072;2023-07-31T00:28:13;14.80;99.90
11748;DHT22;5931;48.832;9.072;2023-07-31T00:30:39;14.60;99.90
11748;DHT22;5931;48.832;9.072;2023-07-31T00:33:05;14.40;99.90
11748;DHT22;5931;48.832;9.072;2023-07-31T00:35:31;14.20;99.90
11748;DHT22;5931;48.832;9.072;2023-07-31T00:37:58;14.20;99.90
11748;DHT22;5931;48.832;9.072;2023-07-31T00:40:24;14.10;99.90
11748;DHT22;5931;48.832;9.072;2023-07-31T00:42:49;14.00;99.90
11748;DHT22;5931;48.832;9.072;2023-07-31T00:45:15;14.10;99.90
11748;DHT22;5931;48.832;9.072;2023-07-31T00:47:41;14.00;99.90
11748;DHT22;5931;48.832;9.072;2023-07-31T00:50:07;13.80;99.90
11748;DHT22;5931;48.832;9.072;2023-07-31T00:52:33;13.70;99.90
11748;DHT22;5931;48.832;9.072;2023-07-31T00:54:59;13.60;99.90
11748;DHT22;5931;48.832;9.072;2023-07-31T00:57:25;13.50;99.90
11748;DHT22;5931;48.832;9.072;2023-07-31T00:59:51;13.50;99.90
11748;DHT22;5931;48.832;9.072;2023-07-31T01:02:16;13.50;99.90
11748;DHT22;5931;48.832;9.072;2023-07-31T01:04:43;13.70;99.90
11748;DHT22;5931;48.832;9.072;2023-07-31T01:10:03;13.80;99.90
11748;DHT22;5931;48.832;9.072;2023-07-31T01:12:31;14.00;99.90
11748;DHT22;5931;48.832;9.072;2023-07-31T01:15:07;13.90;99.90
11748;DHT22;5931;48.832;9.072;2023-07-31T01:17:39;14.00;99.90
11748;DHT22;5931;48.832;9.072;2023-07-31T01:20:18;14.10;99.90
11748;DHT22;5931;48.832;9.072;2023-07-31T01:25:52;14.20;99.90
11748;DHT22;5931;48.832;9.072;2023-07-31T01:31:20;14.30;99.90
11748;DHT22;5931;48.832;9.072;2023-07-31T01:33:46;14.30;99.90
11748;DHT22;5931;48.832;9.072;2023-07-31T01:36:12;14.40;99.90
11748;DHT22;5931;48.832;9.072;2023-07-31T01:38:38;14.40;99.90
11748;DHT22;5931;48.832;9.072;2023-07-31T01:41:04;14.30;99.90
11748;DHT22;5931;48.832;9.072;2023-07-31T01:43:30;14.30;99.90
11748;DHT22;5931;48.832;9.072;2023-07-31T01:45:56;14.30;99.90
11748;DHT22;5931;48.832;9.072;2023-07-31T01:48:23;14.30;99.90
11748;DHT22;5931;48.832;9.072;2023-07-31T01:50:49;14.50;99.90
11748;DHT22;5931;48.832;9.072;2023-07-31T01:53:15;14.70;99.90
11748;DHT22;5931;48.832;9.072;2023-07-31T01:55:41;14.70;99.90
11748;DHT22;5931;48.832;9.072;2023-07-31T01:58:07;14.70;99.90
11748;DHT22;5931;48.832;9.072;2023-07-31T02:00:33;14.70;99.90
11748;DHT22;5931;48.832;9.072;2023-07-31T02:02:59;14.70;99.90
11748;DHT22;5931;48.832;9.072;2023-07-31T02:05:25;14.80;99.90
11748;DHT22;5931;48.832;9.072;2023-07-31T02:07:51;14.80;99.90
11748;DHT22;5931;48.832;9.072;2023-07-31T02:10:16;14.80;99.90
11748;DHT22;5931;48.832;9.072;2023-07-31T02:12:42;14.80;99.90
11748;DHT22;5931;48.832;9.072;2023-07-31T02:15:08;14.70;99.90
11748;DHT22;5931;48.832;9.072;2023-07-31T02:17:35;14.70;99.90
11748;DHT22;5931;48.832;9.072;2023-07-31T02:20:01;14.70;99.90
11748;DHT22;5931;48.832;9.072;2023-07-31T02:22:26;14.70;99.90
11748;DHT22;5931;48.832;9.072;2023-07-31T02:24:52;14.60;99.90
11748;DHT22;5931;48.832;9.072;2023-07-31T02:27:17;14.60;99.90
11748;DHT22;5931;48.832;9.072;2023-07-31T02:29:44;14.50;99.90
11748;DHT22;5931;48.832;9.072;2023-07-31T02:32:11;14.40;99.90
11748;DHT22;5931;48.832;9.072;2023-07-31T02:34:37;14.30;99.90
11748;DHT22;5931;48.832;9.072;2023-07-31T02:37:03;14.30;99.90
11748;DHT22;5931;48.832;9.072;2023-07-31T02:39:28;14.40;99.90
11748;DHT22;5931;48.832;9.072;2023-07-31T02:41:54;14.50;99.90
11748;DHT22;5931;48.832;9.072;2023-07-31T02:44:20;14.40;99.90
11748;DHT22;5931;48.832;9.072;2023-07-31T02:46:46;14.40;99.90
11748;DHT22;5931;48.832;9.072;2023-07-31T02:49:12;14.40;99.90
11748;DHT22;5931;48.832;9.072;2023-07-31T02:51:37;14.30;99.90
11748;DHT22;5931;48.832;9.072;2023-07-31T02:54:03;14.30;99.90
11748;DHT22;5931;48.832;9.072;2023-07-31T02:56:29;14.20;99.90
11748;DHT22;5931;48.832;9.072;2023-07-31T02:58:54;14.10;99.90
11748;DHT22;5931;48.832;9.072;2023-07-31T03:01:20;14.10;99.90
11748;DHT22;5931;48.832;9.072;2023-07-31T03:03:46;14.00;99.90
11748;DHT22;5931;48.832;9.072;2023-07-31T03:06:11;13.90;99.90
11748;DHT22;5931;48.832;9.072;2023-07-31T03:08:37;13.80;99.90
11748;DHT22;5931;48.832;9.072;2023-07-31T03:11:02;13.70;99.90
11748;DHT22;5931;48.832;9.072;2023-07-31T03:13:28;13.60;99.90
11748;DHT22;5931;48.832;9.072;2023-07-31T03:15:54;13.70;99.90
11748;DHT22;5931;48.832;9.072;2023-07-31T03:18:19;13.70;99.90
11748;DHT22;5931;48.832;9.072;2023-07-31T03:20:45;13.80;99.90
11748;DHT22;5931;48.832;9.072;2023-07-31T03:23:10;13.90;99.90
11748;DHT22;5931;48.832;9.072;2023-07-31T03:25:36;14.00;99.90
11748;DHT22;5931;48.832;9.072;2023-07-31T03:28:02;14.10;99.90
11748;DHT22;5931;48.832;9.072;2023-07-31T03:30:29;14.20;99.90
11748;DHT22;5931;48.832;9.072;2023-07-31T03:32:55;14.20;99.90
11748;DHT22;5931;48.832;9.072;2023-07-31T03:35:21;14.20;99.90
11748;DHT22;5931;48.832;9.072;2023-07-31T03:37:46;14.20;99.90
11748;DHT22;5931;48.832;9.072;2023-07-31T03:40:12;14.20;99.90
11748;DHT22;5931;48.832;9.072;2023-07-31T03:42:38;14.10;99.90
11748;DHT22;5931;48.832;9.072;2023-07-31T03:45:04;14.30;99.90
11748;DHT22;5931;48.832;9.072;2023-07-31T03:47:30;14.30;99.90
11748;DHT22;5931;48.832;9.072;2023-07-31T03:49:55;14.40;99.90
11748;DHT22;5931;48.832;9.072;2023-07-31T03:52:21;14.40;99.90
11748;DHT22;5931;48.832;9.072;2023-07-31T03:54:47;14.50;99.90
11748;DHT22;5931;48.832;9.072;2023-07-31T03:57:12;14.60;99.90
11748;DHT22;5931;48.832;9.072;2023-07-31T03:59:38;14.60;99.90
11748;DHT22;5931;48.832;9.072;2023-07-31T04:02:06;14.60;99.90
11748;DHT22;5931;48.832;9.072;2023-07-31T04:04:32;14.80;99.90
11748;DHT22;5931;48.832;9.072;2023-07-31T04:06:58;14.80;99.90
11748;DHT22;5931;48.832;9.072;2023-07-31T04:09:23;14.80;99.90
11748;DHT22;5931;48.832;9.072;2023-07-31T04:11:49;14.80;99.90
11748;DHT22;5931;48.832;9.072;2023-07-31T04:14:14;14.90;99.90
11748;DHT22;5931;48.832;9.072;2023-07-31T04:16:40;15.00;99.90
11748;DHT22;5931;48.832;9.072;2023-07-31T04:19:06;15.10;99.90
11748;DHT22;5931;48.832;9.072;2023-07-31T04:21:31;15.10;99.90
11748;DHT22;5931;48.832;9.072;2023-07-31T04:23:57;15.10;99.90
11748;DHT22;5931;48.832;9.072;2023-07-31T04:26:23;15.20;99.90
11748;DHT22;5931;48.832;9.072;2023-07-31T04:28:49;15.20;99.90
11748;DHT22;5931;48.832;9.072;2023-07-31T04:31:15;15.30;99.90
11748;DHT22;5931;48.832;9.072;2023-07-31T04:33:40;15.40;99.90
11748;DHT22;5931;48.832;9.072;2023-07-31T04:36:06;15.40;99.90
11748;DHT22;5931;48.832;9.072;2023-07-31T04:38:32;15.50;99.90
11748;DHT22;5931;48.832;9.072;2023-07-31T04:40:57;15.50;99.90
11748;DHT22;5931;48.832;9.072;2023-07-31T04:43:23;15.70;99.90
11748;DHT22;5931;48.832;9.072;2023-07-31T04:45:49;15.70;99.90
11748;DHT22;5931;48.832;9.072;2023-07-31T04:48:15;15.80;99.90
11748;DHT22;5931;48.832;9.072;2023-07-31T04:50:41;15.90;99.90
11748;DHT22;5931;48.832;9.072;2023-07-31T04:53:07;15.90;99.90
11748;DHT22;5931;48.832;9.072;2023-07-31T04:55:32;15.90;99.90
11748;DHT22;5931;48.832;9.072;2023-07-31T04:57:59;16.00;99.90
11748;DHT22;5931;48.832;9.072;2023-07-31T05:00:25;16.00;99.90
11748;DHT22;5931;48.832;9.072;2023-07-31T05:02:50;16.00;99.90
11748;DHT22;5931;48.832;9.072;2023-07-31T05:05:16;16.00;99.90
11748;DHT22;5931;48.832;9.072;2023-07-31T05:07:41;16.00;99.90
11748;DHT22;5931;48.832;9.072;2023-07-31T05:10:07;16.10;99.90
11748;DHT22;5931;48.832;9.072;2023-07-31T05:12:33;16.10;99.90
11748;DHT22;5931;48.832;9.072;2023-07-31T05:14:59;16.20;99.90
11748;DHT22;5931;48.832;9.072;2023-07-31T05:17:24;16.30;99.90
11748;DHT22;5931;48.832;9.072;2023-07-31T05:19:50;16.30;99.90
11748;DHT22;5931;48.832;9.072;2023-07-31T05:22:16;16.30;99.90
11748;DHT22;5931;48.832;9.072;2023-07-31T05:24:41;16.40;99.90
11748;DHT22;5931;48.832;9.072;2023-07-31T05:27:07;16.50;99.90
11748;DHT22;5931;48.832;9.072;2023-07-31T05:29:33;16.60;99.90
11748;DHT22;5931;48.832;9.072;2023-07-31T05:31:58;16.70;99.90
11748;DHT22;5931;48.832;9.072;2023-07-31T05:34:24;16.80;99.90
11748;DHT22;5931;48.832;9.072;2023-07-31T05:36:50;16.90;99.90
11748;DHT22;5931;48.832;9.072;2023-07-31T05:39:15;17.00;99.90
11748;DHT22;5931;48.832;9.072;2023-07-31T05:41:41;17.10;99.90
11748;DHT22;5931;48.832;9.072;2023-07-31T05:44:06;17.20;99.90
11748;DHT22;5931;48.832;9.072;2023-07-31T05:46:32;17.20;99.90
11748;DHT22;5931;48.832;9.072;2023-07-31T05:48:58;17.30;99.90
11748;DHT22;5931;48.832;9.072;2023-07-31T05:51:26;17.50;99.90
11748;DHT22;5931;48.832;9.072;2023-07-31T05:53:53;17.50;99.90
11748;DHT22;5931;48.832;9.072;2023-07-31T05:56:18;17.70;99.90
11748;DHT22;5931;48.832;9.072;2023-07-31T05:58:44;17.80;99.90
11748;DHT22;5931;48.832;9.072;2023-07-31T06:01:10;17.90;99.90
11748;DHT22;5931;48.832;9.072;2023-07-31T06:03:35;17.90;99.90
11748;DHT22;5931;48.832;9.072;2023-07-31T06:06:01;17.90;99.90
11748;DHT22;5931;48.832;9.072;2023-07-31T06:08:27;18.00;99.90
11748;DHT22;5931;48.832;9.072;2023-07-31T06:10:52;18.10;99.90
11748;DHT22;5931;48.832;9.072;2023-07-31T06:13:18;18.30;99.90
11748;DHT22;5931;48.832;9.072;2023-07-31T06:15:44;18.50;99.90
11748;DHT22;5931;48.832;9.072;2023-07-31T06:18:09;18.70;99.90
11748;DHT22;5931;48.832;9.072;2023-07-31T06:20:36;18.90;99.90
11748;DHT22;5931;48.832;9.072;2023-07-31T06:23:01;18.90;99.90
11748;DHT22;5931;48.832;9.072;2023-07-31T06:25:27;18.90;99.90
11748;DHT22;5931;48.832;9.072;2023-07-31T06:27:53;19.00;99.90
11748;DHT22;5931;48.832;9.072;2023-07-31T06:30:19;19.00;99.90
11748;DHT22;5931;48.832;9.072;2023-07-31T06:32:44;19.10;99.90
11748;DHT22;5931;48.832;9.072;2023-07-31T06:35:10;19.20;99.90
11748;DHT22;5931;48.832;9.072;2023-07-31T06:37:36;19.30;99.90
11748;DHT22;5931;48.832;9.072;2023-07-31T06:40:01;19.30;99.90
11748;DHT22;5931;48.832;9.072;2023-07-31T06:42:27;19.20;99.90
11748;DHT22;5931;48.832;9.072;2023-07-31T06:44:53;19.20;99.90
11748;DHT22;5931;48.832;9.072;2023-07-31T06:47:18;19.30;99.90
11748;DHT22;5931;48.832;9.072;2023-07-31T06:49:44;19.60;99.90
11748;DHT22;5931;48.832;9.072;2023-07-31T06:52:10;19.70;99.90
11748;DHT22;5931;48.832;9.072;2023-07-31T06:54:36;19.80;99.90
11748;DHT22;5931;48.832;9.072;2023-07-31T06:57:02;19.80;99.90
11748;DHT22;5931;48.832;9.072;2023-07-31T06:59:29;19.90;99.90
11748;DHT22;5931;48.832;9.072;2023-07-31T07:01:54;19.80;99.90
11748;DHT22;5931;48.832;9.072;2023-07-31T07:04:20;19.80;99.90
11748;DHT22;5931;48.832;9.072;2023-07-31T07:06:46;19.90;99.90
11748;DHT22;5931;48.832;9.072;2023-07-31T07:09:11;20.00;99.90
11748;DHT22;5931;48.832;9.072;2023-07-31T07:11:37;20.40;99.90
11748;DHT22;5931;48.832;9.072;2023-07-31T07:14:03;20.90;99.90
11748;DHT22;5931;48.832;9.072;2023-07-31T07:16:29;21.20;99.90
11748;DHT22;5931;48.832;9.072;2023-07-31T07:18:54;21.40;99.90
11748;DHT22;5931;48.832;9.072;2023-07-31T07:21:20;21.60;99.90
11748;DHT22;5931;48.832;9.072;2023-07-31T07:23:45;21.50;99.90
11748;DHT22;5931;48.832;9.072;2023-07-31T07:26:11;21.20;99.90
11748;DHT22;5931;48.832;9.072;2023-07-31T07:28:37;21.00;99.90
11748;DHT22;5931;48.832;9.072;2023-07-31T07:31:03;20.80;99.90
11748;DHT22;5931;48.832;9.072;2023-07-31T07:33:28;20.50;99.90
11748;DHT22;5931;48.832;9.072;2023-07-31T07:35:54;20.70;99.90
11748;DHT22;5931;48.832;9.072;2023-07-31T07:38:20;20.60;99.90
11748;DHT22;5931;48.832;9.072;2023-07-31T07:40:46;20.70;99.90
11748;DHT22;5931;48.832;9.072;2023-07-31T07:43:16;20.90;99.90
11748;DHT22;5931;48.832;9.072;2023-07-31T07:45:41;20.90;99.90
11748;DHT22;5931;48.832;9.072;2023-07-31T07:48:07;21.00;99.90
11748;DHT22;5931;48.832;9.072;2023-07-31T07:50:32;21.10;99.90
11748;DHT22;5931;48.832;9.072;2023-07-31T07:52:58;21.10;99.90
11748;DHT22;5931;48.832;9.072;2023-07-31T07:55:24;20.90;99.90
11748;DHT22;5931;48.832;9.072;2023-07-31T07:57:49;21.00;99.90
11748;DHT22;5931;48.832;9.072;2023-07-31T08:00:16;21.10;99.90
11748;DHT22;5931;48.832;9.072;2023-07-31T08:02:42;21.30;99.90
11748;DHT22;5931;48.832;9.072;2023-07-31T08:05:08;21.40;99.90
11748;DHT22;5931;48.832;9.072;2023-07-31T08:07:34;21.40;99.90
11748;DHT22;5931;48.832;9.072;2023-07-31T08:09:59;21.20;99.90
11748;DHT22;5931;48.832;9.072;2023-07-31T08:12:25;21.20;99.90
11748;DHT22;5931;48.832;9.072;2023-07-31T08:14:51;21.20;99.90
11748;DHT22;5931;48.832;9.072;2023-07-31T08:17:17;21.40;99.90
11748;DHT22;5931;48.832;9.072;2023-07-31T08:19:43;21.50;99.90
11748;DHT22;5931;48.832;9.072;2023-07-31T08:22:09;21.70;99.90
11748;DHT22;5931;48.832;9.072;2023-07-31T08:24:35;22.00;99.90
11748;DHT22;5931;48.832;9.072;2023-07-31T08:27:00;22.10;99.90
11748;DHT22;5931;48.832;9.072;2023-07-31T08:29:26;22.10;99.90
11748;DHT22;5931;48.832;9.072;2023-07-31T08:31:52;22.40;99.90
11748;DHT22;5931;48.832;9.072;2023-07-31T08:34:17;22.40;99.90
11748;DHT22;5931;48.832;9.072;2023-07-31T08:36:43;22.40;99.90
11748;DHT22;5931;48.832;9.072;2023-07-31T08:39:09;22.30;99.90
11748;DHT22;5931;48.832;9.072;2023-07-31T08:41:41;22.30;99.90
11748;DHT22;5931;48.832;9.072;2023-07-31T08:44:10;22.30;99.90
11748;DHT22;5931;48.832;9.072;2023-07-31T08:46:37;22.10;99.90
11748;DHT22;5931;48.832;9.072;2023-07-31T08:49:07;21.90;99.90
11748;DHT22;5931;48.832;9.072;2023-07-31T08:51:36;22.00;99.90
11748;DHT22;5931;48.832;9.072;2023-07-31T08:54:02;22.10;99.90
11748;DHT22;5931;48.832;9.072;2023-07-31T08:56:32;22.00;99.90
11748;DHT22;5931;48.832;9.072;2023-07-31T08:58:59;22.00;99.90
11748;DHT22;5931;48.832;9.072;2023-07-31T09:01:29;22.10;99.90
11748;DHT22;5931;48.832;9.072;2023-07-31T09:03:58;22.20;99.90
11748;DHT22;5931;48.832;9.072;2023-07-31T09:06:25;22.30;99.90
11748;DHT22;5931;48.832;9.072;2023-07-31T09:08:52;22.40;99.90
11748;DHT22;5931;48.832;9.072;2023-07-31T09:11:18;22.60;99.90
11748;DHT22;5931;48.832;9.072;2023-07-31T09:13:45;22.60;99.90
11748;DHT22;5931;48.832;9.072;2023-07-31T09:16:11;22.60;99.90
11748;DHT22;5931;48.832;9.072;2023-07-31T09:18:56;22.60;99.90
11748;DHT22;5931;48.832;9.072;2023-07-31T09:21:23;22.70;99.90
11748;DHT22;5931;48.832;9.072;2023-07-31T09:23:50;22.90;99.90
11748;DHT22;5931;48.832;9.072;2023-07-31T09:26:35;23.30;99.90
11748;DHT22;5931;48.832;9.072;2023-07-31T09:29:03;23.80;99.90
11748;DHT22;5931;48.832;9.072;2023-07-31T09:31:40;23.60;99.90
11748;DHT22;5931;48.832;9.072;2023-07-31T09:34:09;23.80;99.90
11748;DHT22;5931;48.832;9.072;2023-07-31T09:36:45;23.90;99.90
11748;DHT22;5931;48.832;9.072;2023-07-31T09:39:12;24.00;99.90
11748;DHT22;5931;48.832;9.072;2023-07-31T09:41:43;23.90;99.90
11748;DHT22;5931;48.832;9.072;2023-07-31T09:44:10;24.00;99.90
11748;DHT22;5931;48.832;9.072;2023-07-31T09:46:36;24.40;99.90
11748;DHT22;5931;48.832;9.072;2023-07-31T09:49:10;24.40;99.90
11748;DHT22;5931;48.832;9.072;2023-07-31T09:51:38;24.50;99.90
11748;DHT22;5931;48.832;9.072;2023-07-31T09:54:12;24.30;99.90
11748;DHT22;5931;48.832;9.072;2023-07-31T09:56:44;24.20;99.90
11748;DHT22;5931;48.832;9.072;2023-07-31T09:59:15;24.20;99.90
11748;DHT22;5931;48.832;9.072;2023-07-31T10:01:42;24.30;99.90
11748;DHT22;5931;48.832;9.072;2023-07-31T10:04:09;24.40;99.90
11748;DHT22;5931;48.832;9.072;2023-07-31T10:06:36;24.50;99.90
11748;DHT22;5931;48.832;9.072;2023-07-31T10:09:05;24.70;99.90
11748;DHT22;5931;48.832;9.072;2023-07-31T10:11:36;24.70;99.90
11748;DHT22;5931;48.832;9.072;2023-07-31T10:14:05;24.30;99.90
11748;DHT22;5931;48.832;9.072;2023-07-31T10:16:31;24.10;99.90
11748;DHT22;5931;48.832;9.072;2023-07-31T10:18:58;24.00;99.90
11748;DHT22;5931;48.832;9.072;2023-07-31T10:21:24;24.10;99.90
11748;DHT22;5931;48.832;9.072;2023-07-31T10:23:50;24.10;99.90
11748;DHT22;5931;48.832;9.072;2023-07-31T10:26:17;24.00;99.90
11748;DHT22;5931;48.832;9.072;2023-07-31T10:28:45;23.80;99.90
11748;DHT22;5931;48.832;9.072;2023-07-31T10:31:12;24.00;99.90
11748;DHT22;5931;48.832;9.072;2023-07-31T10:33:39;24.40;99.90
11748;DHT22;5931;48.832;9.072;2023-07-31T10:36:20;24.90;99.90
11748;DHT22;5931;48.832;9.072;2023-07-31T10:38:49;25.20;99.90
11748;DHT22;5931;48.832;9.072;2023-07-31T10:41:16;25.40;99.90
11748;DHT22;5931;48.832;9.072;2023-07-31T10:43:42;25.40;99.90
11748;DHT22;5931;48.832;9.072;2023-07-31T10:46:08;25.20;99.90
11748;DHT22;5931;48.832;9.072;2023-07-31T10:48:35;24.80;99.90
11748;DHT22;5931;48.832;9.072;2023-07-31T10:51:12;24.60;99.90
11748;DHT22;5931;48.832;9.072;2023-07-31T10:53:39;24.50;99.90
11748;DHT22;5931;48.832;9.072;2023-07-31T10:56:07;24.80;99.90
11748;DHT22;5931;48.832;9.072;2023-07-31T10:58:33;25.10;99.90
11748;DHT22;5931;48.832;9.072;2023-07-31T11:01:04;25.70;99.90
11748;DHT22;5931;48.832;9.072;2023-07-31T11:03:51;25.70;99.90
11748;DHT22;5931;48.832;9.072;2023-07-31T11:06:18;25.60;99.90
11748;DHT22;5931;48.832;9.072;2023-07-31T11:08:45;25.60;99.90
11748;DHT22;5931;48.832;9.072;2023-07-31T11:11:13;25.70;99.90
11748;DHT22;5931;48.832;9.072;2023-07-31T11:13:50;25.80;99.90
11748;DHT22;5931;48.832;9.072;2023-07-31T11:16:17;25.90;99.90
11748;DHT22;5931;48.832;9.072;2023-07-31T11:18:44;25.90;99.90
11748;DHT22;5931;48.832;9.072;2023-07-31T11:21:15;26.10;99.90
11748;DHT22;5931;48.832;9.072;2023-07-31T11:23:45;26.10;99.90
11748;DHT22;5931;48.832;9.072;2023-07-31T11:26:11;26.10;99.90
11748;DHT22;5931;48.832;9.072;2023-07-31T11:28:37;26.40;99.90
11748;DHT22;5931;48.832;9.072;2023-07-31T11:31:04;26.40;99.90
11748;DHT22;5931;48.832;9.072;2023-07-31T11:33:30;26.20;99.90
11748;DHT22;5931;48.832;9.072;2023-07-31T11:35:56;25.80;99.90
11748;DHT22;5931;48.832;9.072;2023-07-31T11:38:32;25.50;99.90
11748;DHT22;5931;48.832;9.072;2023-07-31T11:41:03;25.50;99.90
11748;DHT22;5931;48.832;9.072;2023-07-31T11:43:30;25.40;99.90
11748;DHT22;5931;48.832;9.072;2023-07-31T11:45:57;25.70;99.90
11748;DHT22;5931;48.832;9.072;2023-07-31T11:48:26;25.80;99.90
11748;DHT22;5931;48.832;9.072;2023-07-31T11:50:58;25.70;99.90
11748;DHT22;5931;48.832;9.072;2023-07-31T11:55:59;25.50;99.90
11748;DHT22;5931;48.832;9.072;2023-07-31T11:58:27;25.40;99.90
11748;DHT22;5931;48.832;9.072;2023-07-31T12:00:53;25.70;99.90
11748;DHT22;5931;48.832;9.072;2023-07-31T12:03:19;26.10;99.90
11748;DHT22;5931;48.832;9.072;2023-07-31T12:05:47;26.10;99.90
11748;DHT22;5931;48.832;9.072;2023-07-31T12:08:13;26.00;99.90
11748;DHT22;5931;48.832;9.072;2023-07-31T12:10:39;26.00;99.90
11748;DHT22;5931;48.832;9.072;2023-07-31T12:13:11;26.30;99.90
11748;DHT22;5931;48.832;9.072;2023-07-31T12:15:43;26.30;99.90
11748;DHT22;5931;48.832;9.072;2023-07-31T12:18:13;26.20;99.90
11748;DHT22;5931;48.832;9.072;2023-07-31T12:20:48;26.10;99.90
11748;DHT22;5931;48.832;9.072;2023-07-31T12:23:19;26.20;99.90
11748;DHT22;5931;48.832;9.072;2023-07-31T12:25:45;26.20;99.90
11748;DHT22;5931;48.832;9.072;2023-07-31T12:28:10;26.40;99.90
11748;DHT22;5931;48.832;9.072;2023-07-31T12:30:40;26.30;99.90
11748;DHT22;5931;48.832;9.072;2023-07-31T12:33:12;25.90;99.90
11748;DHT22;5931;48.832;9.072;2023-07-31T12:35:44;26.00;99.90
11748;DHT22;5931;48.832;9.072;2023-07-31T12:38:11;25.80;99.90
11748;DHT22;5931;48.832;9.072;2023-07-31T12:40:39;25.90;99.90
11748;DHT22;5931;48.832;9.072;2023-07-31T12:43:05;25.40;99.90
11748;DHT22;5931;48.832;9.072;2023-07-31T12:45:31;25.30;99.90
11748;DHT22;5931;48.832;9.072;2023-07-31T12:47:58;25.50;99.90
11748;DHT22;5931;48.832;9.072;2023-07-31T12:50:24;25.70;99.90
11748;DHT22;5931;48.832;9.072;2023-07-31T12:52:51;25.80;99.90
11748;DHT22;5931;48.832;9.072;2023-07-31T12:55:16;25.50;99.90
11748;DHT22;5931;48.832;9.072;2023-07-31T12:57:44;25.10;99.90
11748;DHT22;5931;48.832;9.072;2023-07-31T13:00:10;25.00;99.90
11748;DHT22;5931;48.832;9.072;2023-07-31T13:02:36;25.20;99.90
11748;DHT22;5931;48.832;9.072;2023-07-31T13:05:02;25.20;99.90
11748;DHT22;5931;48.832;9.072;2023-07-31T13:07:28;25.70;99.90
11748;DHT22;5931;48.832;9.072;2023-07-31T13:09:53;26.00;99.90
11748;DHT22;5931;48.832;9.072;2023-07-31T13:12:19;26.10;99.90
11748;DHT22;5931;48.832;9.072;2023-07-31T13:14:44;26.00;99.90
11748;DHT22;5931;48.832;9.072;2023-07-31T13:17:10;25.80;99.90
11748;DHT22;5931;48.832;9.072;2023-07-31T13:19:36;25.90;99.90
11748;DHT22;5931;48.832;9.072;2023-07-31T13:22:01;25.80;99.90
11748;DHT22;5931;48.832;9.072;2023-07-31T13:24:27;25.80;99.90
11748;DHT22;5931;48.832;9.072;2023-07-31T13:26:53;25.90;99.90
11748;DHT22;5931;48.832;9.072;2023-07-31T13:29:18;26.40;99.90
11748;DHT22;5931;48.832;9.072;2023-07-31T13:31:44;26.60;99.90
11748;DHT22;5931;48.832;9.072;2023-07-31T13:34:10;26.80;99.90
11748;DHT22;5931;48.832;9.072;2023-07-31T13:36:35;27.30;99.90
11748;DHT22;5931;48.832;9.072;2023-07-31T13:39:02;27.30;99.90
11748;DHT22;5931;48.832;9.072;2023-07-31T13:41:28;27.10;99.90
11748;DHT22;5931;48.832;9.072;2023-07-31T13:43:54;27.20;99.90
11748;DHT22;5931;48.832;9.072;2023-07-31T13:46:19;27.30;99.90
11748;DHT22;5931;48.832;9.072;2023-07-31T13:48:45;27.50;99.90
11748;DHT22;5931;48.832;9.072;2023-07-31T13:51:11;27.30;99.90
11748;DHT22;5931;48.832;9.072;2023-07-31T13:53:36;27.40;99.90
11748;DHT22;5931;48.832;9.072;2023-07-31T13:56:02;27.30;99.90
11748;DHT22;5931;48.832;9.072;2023-07-31T13:58:28;27.10;99.90
11748;DHT22;5931;48.832;9.072;2023-07-31T14:00:53;26.90;99.90
11748;DHT22;5931;48.832;9.072;2023-07-31T14:03:19;26.70;99.90
11748;DHT22;5931;48.832;9.072;2023-07-31T14:05:45;26.50;99.90
11748;DHT22;5931;48.832;9.072;2023-07-31T14:08:10;26.50;99.90
11748;DHT22;5931;48.832;9.072;2023-07-31T14:10:36;26.50;99.90
11748;DHT22;5931;48.832;9.072;2023-07-31T14:13:01;26.50;99.90
11748;DHT22;5931;48.832;9.072;2023-07-31T14:15:27;26.50;99.90
11748;DHT22;5931;48.832;9.072;2023-07-31T14:17:54;26.50;99.90
11748;DHT22;5931;48.832;9.072;2023-07-31T14:20:19;26.60;99.90
11748;DHT22;5931;48.832;9.072;2023-07-31T14:22:45;27.00;99.90
11748;DHT22;5931;48.832;9.072;2023-07-31T14:25:10;27.10;99.90
11748;DHT22;5931;48.832;9.072;2023-07-31T14:27:36;27.30;99.90
11748;DHT22;5931;48.832;9.072;2023-07-31T14:30:03;27.20;99.90
11748;DHT22;5931;48.832;9.072;2023-07-31T14:32:28;27.10;99.90
11748;DHT22;5931;48.832;9.072;2023-07-31T14:34:54;27.10;99.90
11748;DHT22;5931;48.832;9.072;2023-07-31T14:37:20;27.40;99.90
11748;DHT22;5931;48.832;9.072;2023-07-31T14:39:46;27.20;99.90
11748;DHT22;5931;48.832;9.072;2023-07-31T14:42:11;26.90;99.90
11748;DHT22;5931;48.832;9.072;2023-07-31T14:44:37;27.10;99.90
11748;DHT22;5931;48.832;9.072;2023-07-31T14:47:03;27.20;99.90
11748;DHT22;5931;48.832;9.072;2023-07-31T14:49:29;27.30;99.90
11748;DHT22;5931;48.832;9.072;2023-07-31T14:51:55;27.70;99.90
11748;DHT22;5931;48.832;9.072;2023-07-31T14:54:20;27.80;99.90
11748;DHT22;5931;48.832;9.072;2023-07-31T14:56:46;27.60;99.90
11748;DHT22;5931;48.832;9.072;2023-07-31T14:59:12;27.50;99.90
11748;DHT22;5931;48.832;9.072;2023-07-31T15:01:37;27.20;99.90
11748;DHT22;5931;48.832;9.072;2023-07-31T15:04:03;27.00;99.90
11748;DHT22;5931;48.832;9.072;2023-07-31T15:06:29;27.10;99.90
11748;DHT22;5931;48.832;9.072;2023-07-31T15:08:55;27.00;99.90
11748;DHT22;5931;48.832;9.072;2023-07-31T15:11:20;26.80;99.90
11748;DHT22;5931;48.832;9.072;2023-07-31T15:13:46;26.60;99.90
11748;DHT22;5931;48.832;9.072;2023-07-31T15:16:12;26.30;99.90
11748;DHT22;5931;48.832;9.072;2023-07-31T15:18:38;26.30;99.90
11748;DHT22;5931;48.832;9.072;2023-07-31T15:21:04;26.50;99.90
11748;DHT22;5931;48.832;9.072;2023-07-31T15:23:31;26.50;99.90
11748;DHT22;5931;48.832;9.072;2023-07-31T15:25:56;26.60;99.90
11748;DHT22;5931;48.832;9.072;2023-07-31T15:28:22;26.50;99.90
11748;DHT22;5931;48.832;9.072;2023-07-31T15:30:48;26.70;99.90
11748;DHT22;5931;48.832;9.072;2023-07-31T15:33:14;26.70;99.90
11748;DHT22;5931;48.832;9.072;2023-07-31T15:35:40;26.60;99.90
11748;DHT22;5931;48.832;9.072;2023-07-31T15:38:06;26.20;99.90
11748;DHT22;5931;48.832;9.072;2023-07-31T15:40:32;26.10;99.90
11748;DHT22;5931;48.832;9.072;2023-07-31T15:42:57;26.00;99.90
11748;DHT22;5931;48.832;9.072;2023-07-31T15:45:26;26.30;99.90
11748;DHT22;5931;48.832;9.072;2023-07-31T15:47:51;26.30;99.90
11748;DHT22;5931;48.832;9.072;2023-07-31T15:50:17;26.40;99.90
11748;DHT22;5931;48.832;9.072;2023-07-31T15:52:43;26.30;99.90